createdAt,value
2023-05-06T00:00:53.231Z,78.50
2023-05-06T00:03:25.418Z,78.07
2023-05-06T00:05:55.281Z,77.87
2023-05-06T00:08:24.732Z,77.66
2023-05-06T00:10:54.216Z,76.99
2023-05-06T00:13:23.680Z,77.19
2023-05-06T00:15:53.149Z,76.75
2023-05-06T00:18:25.287Z,77.15
2023-05-06T00:20:54.703Z,76.15
2023-05-06T00:23:24.099Z,76.12
2023-05-06T00:25:53.570Z,76.24
2023-05-06T00:28:23.042Z,76.52
2023-05-06T00:30:52.518Z,76.60
2023-05-06T00:33:21.977Z,76.74
2023-05-06T00:35:55.034Z,77.02
2023-05-06T00:38:25.111Z,77.18
2023-05-06T00:40:54.685Z,77.58
2023-05-06T00:43:24.163Z,77.31
2023-05-06T00:45:54.192Z,76.99
2023-05-06T00:48:23.675Z,77.45
2023-05-06T00:50:55.797Z,76.90
2023-05-06T00:53:25.438Z,76.90
2023-05-06T00:55:54.967Z,77.52
2023-05-06T00:58:24.483Z,76.38
2023-05-06T01:00:55.459Z,76.11
2023-05-06T01:03:26.099Z,76.64
2023-05-06T01:06:06.989Z,76.69
2023-05-06T01:08:40.084Z,76.79
2023-05-06T01:11:16.106Z,76.38
2023-05-06T01:13:51.389Z,76.07
2023-05-06T01:16:26.987Z,76.34
2023-05-06T01:18:57.719Z,77.16
2023-05-06T01:21:34.991Z,76.37
2023-05-06T01:24:07.591Z,76.87
2023-05-06T01:26:37.033Z,76.53
2023-05-06T01:29:06.582Z,76.73
2023-05-06T01:31:43.008Z,76.87
2023-05-06T01:34:18.103Z,77.02
2023-05-06T01:36:57.751Z,75.85
2023-05-06T01:39:33.593Z,76.51
2023-05-06T01:42:05.374Z,75.93
2023-05-06T01:44:36.846Z,75.04
2023-05-06T01:47:08.123Z,75.27
2023-05-06T01:49:38.085Z,75.58
2023-05-06T01:52:07.641Z,75.62
2023-05-06T01:54:39.688Z,74.99
2023-05-06T01:57:09.139Z,75.65
2023-05-06T01:59:38.588Z,75.57
2023-05-06T02:02:08.337Z,76.06
2023-05-06T02:04:38.013Z,76.72
2023-05-06T02:07:08.137Z,75.74
2023-05-06T02:09:40.154Z,76.34
2023-05-06T02:12:09.774Z,76.08
2023-05-06T02:14:39.224Z,76.31
2023-05-06T02:17:09.008Z,76.00
2023-05-06T02:19:38.477Z,75.39
2023-05-06T02:22:07.961Z,75.44
2023-05-06T02:24:39.987Z,74.92
2023-05-06T02:27:09.458Z,74.95
2023-05-06T02:29:38.923Z,74.88
2023-05-06T02:32:08.367Z,74.43
2023-05-06T02:34:37.807Z,74.15
2023-05-06T02:37:07.301Z,74.10
2023-05-06T02:39:36.776Z,74.10
2023-05-06T02:42:08.805Z,74.10
2023-05-06T02:44:38.237Z,74.19
2023-05-06T02:47:07.830Z,73.54
2023-05-06T02:49:37.342Z,73.74
2023-05-06T02:52:07.272Z,73.88
2023-05-06T02:54:36.879Z,73.79
2023-05-06T02:57:08.880Z,73.52
2023-05-06T02:59:38.712Z,73.62
2023-05-06T03:02:08.155Z,73.73
2023-05-06T03:04:37.736Z,73.88
2023-05-06T03:07:07.223Z,73.79
2023-05-06T03:09:36.815Z,74.00
2023-05-06T03:12:09.357Z,73.95
2023-05-06T03:14:38.800Z,74.29
2023-05-06T03:17:08.398Z,74.42
2023-05-06T03:19:39.737Z,74.50
2023-05-06T03:22:11.001Z,74.67
2023-05-06T03:24:44.408Z,75.10
2023-05-06T03:27:16.611Z,75.33
2023-05-06T03:29:48.343Z,75.23
2023-05-06T03:32:19.025Z,75.52
2023-05-06T03:34:48.693Z,76.09
2023-05-06T03:37:21.974Z,75.46
2023-05-06T03:39:55.805Z,75.40
2023-05-06T03:42:31.600Z,75.50
2023-05-06T03:45:01.556Z,75.61
2023-05-06T03:47:34.176Z,75.64
2023-05-06T03:50:05.698Z,75.06
2023-05-06T03:52:36.964Z,75.84
2023-05-06T03:55:08.529Z,75.95
2023-05-06T03:57:42.099Z,75.59
2023-05-06T04:00:13.437Z,76.17
2023-05-06T04:02:53.366Z,75.96
2023-05-06T04:05:29.199Z,76.02
2023-05-06T04:07:58.776Z,76.20
2023-05-06T04:10:28.498Z,76.06
2023-05-06T04:13:06.457Z,75.61
2023-05-06T04:15:41.907Z,75.97
2023-05-06T04:18:19.174Z,75.54
2023-05-06T04:20:56.702Z,75.64
2023-05-06T04:23:27.062Z,75.87
2023-05-06T04:25:59.440Z,75.73
2023-05-06T04:28:33.059Z,75.95
2023-05-06T04:31:02.616Z,75.59
2023-05-06T04:33:41.432Z,75.97
2023-05-06T04:36:14.569Z,75.49
2023-05-06T04:38:52.880Z,74.88
2023-05-06T04:41:23.804Z,74.99
2023-05-06T04:43:56.236Z,75.49
2023-05-06T04:46:27.277Z,75.51
2023-05-06T04:48:58.371Z,75.70
2023-05-06T04:51:28.072Z,76.24
2023-05-06T04:53:57.864Z,75.87
2023-05-06T04:56:27.333Z,76.03
2023-05-06T04:58:59.458Z,75.49
2023-05-06T05:01:29.916Z,75.48
2023-05-06T05:03:59.417Z,75.20
2023-05-06T05:06:28.896Z,75.39
2023-05-06T05:08:59.490Z,75.06
2023-05-06T05:11:29.644Z,74.58
2023-05-06T05:14:03.791Z,74.98
2023-05-06T05:16:33.831Z,75.04
2023-05-06T05:19:07.459Z,75.30
2023-05-06T05:21:38.565Z,75.02
2023-05-06T05:24:09.586Z,74.77
2023-05-06T05:26:39.100Z,74.56
2023-05-06T05:29:11.323Z,74.53
2023-05-06T05:31:41.166Z,74.22
2023-05-06T05:34:11.185Z,74.52
2023-05-06T05:36:40.866Z,74.17
2023-05-06T05:39:13.213Z,73.60
2023-05-06T05:41:47.146Z,74.09
2023-05-06T05:44:19.681Z,74.40
2023-05-06T05:46:49.684Z,73.88
2023-05-06T05:49:21.854Z,73.83
2023-05-06T05:51:53.743Z,73.32
2023-05-06T05:54:24.555Z,73.26
2023-05-06T05:56:54.067Z,72.69
2023-05-06T05:59:27.237Z,73.40
2023-05-06T06:01:58.333Z,74.08
2023-05-06T06:04:28.169Z,73.94
2023-05-06T06:06:58.772Z,73.31
2023-05-06T06:09:28.388Z,73.49
2023-05-06T06:11:58.462Z,73.66
2023-05-06T06:14:30.957Z,73.52
2023-05-06T06:17:00.952Z,73.33
2023-05-06T06:19:30.591Z,73.82
2023-05-06T06:22:00.290Z,72.76
2023-05-06T06:24:30.395Z,72.51
2023-05-06T06:26:59.865Z,73.46
2023-05-06T06:29:32.376Z,73.40
2023-05-06T06:32:02.247Z,73.89
2023-05-06T06:34:31.790Z,73.21
2023-05-06T06:37:01.967Z,72.89
2023-05-06T06:39:31.533Z,73.23
2023-05-06T06:42:04.366Z,73.02
2023-05-06T06:44:42.737Z,73.08
2023-05-06T06:47:12.212Z,72.80
2023-05-06T06:49:41.859Z,73.25
2023-05-06T06:52:11.379Z,72.29
2023-05-06T06:54:41.335Z,71.95
2023-05-06T06:57:10.937Z,72.94
2023-05-06T06:59:42.982Z,71.90
2023-05-06T07:02:12.480Z,70.89
2023-05-06T07:04:42.159Z,70.71
2023-05-06T07:07:11.749Z,70.80
2023-05-06T07:09:41.770Z,70.89
2023-05-06T07:12:11.300Z,70.99
2023-05-06T07:14:43.377Z,71.11
2023-05-06T07:17:13.053Z,70.72
2023-05-06T07:19:42.625Z,70.26
2023-05-06T07:22:12.118Z,70.17
2023-05-06T07:24:41.642Z,69.95
2023-05-06T07:27:11.129Z,70.27
2023-05-06T07:29:43.182Z,70.58
2023-05-06T07:32:12.634Z,70.42
2023-05-06T07:34:42.244Z,70.20
2023-05-06T07:37:11.709Z,69.88
2023-05-06T07:39:41.214Z,69.43
2023-05-06T07:42:13.224Z,69.20
2023-05-06T07:44:45.361Z,68.97
2023-05-06T07:47:14.841Z,69.24
2023-05-06T07:49:44.434Z,69.26
2023-05-06T07:52:13.881Z,69.32
2023-05-06T07:54:43.349Z,68.71
2023-05-06T07:57:13.014Z,68.15
2023-05-06T07:59:45.080Z,67.57
2023-05-06T08:02:15.338Z,67.83
2023-05-06T08:04:45.339Z,67.71
2023-05-06T08:07:14.987Z,67.45
2023-05-06T08:09:44.498Z,67.03
2023-05-06T08:12:15.907Z,67.46
2023-05-06T08:14:48.268Z,67.50
2023-05-06T08:17:17.942Z,67.58
2023-05-06T08:19:47.437Z,67.49
2023-05-06T08:22:17.689Z,68.00
2023-05-06T08:24:47.829Z,67.12
2023-05-06T08:27:17.278Z,67.43
2023-05-06T08:29:49.442Z,67.21
2023-05-06T08:32:18.960Z,66.92
2023-05-06T08:34:48.424Z,67.38
2023-05-06T08:37:18.080Z,67.42
2023-05-06T08:39:47.825Z,67.58
2023-05-06T08:42:17.370Z,67.29
2023-05-06T08:44:50.068Z,67.52
2023-05-06T08:47:19.617Z,67.51
2023-05-06T08:49:49.276Z,67.91
2023-05-06T08:52:20.057Z,67.93
2023-05-06T08:54:51.521Z,68.03
2023-05-06T08:57:21.289Z,67.56
2023-05-06T08:59:53.446Z,68.01
2023-05-06T09:02:24.008Z,66.68
2023-05-06T09:04:55.775Z,65.62
2023-05-06T09:07:26.286Z,65.39
2023-05-06T09:09:55.789Z,65.55
2023-05-06T09:12:26.945Z,66.07
2023-05-06T09:14:59.000Z,66.52
2023-05-06T09:17:28.658Z,66.33
2023-05-06T09:19:59.684Z,66.56
2023-05-06T09:22:31.279Z,66.00
2023-05-06T09:25:01.850Z,66.10
2023-05-06T09:27:33.969Z,66.15
2023-05-06T09:30:08.263Z,66.23
2023-05-06T09:32:40.263Z,66.78
2023-05-06T09:35:12.102Z,65.74
2023-05-06T09:37:42.309Z,65.85
2023-05-06T09:40:12.614Z,65.18
2023-05-06T09:42:42.017Z,64.82
2023-05-06T09:45:18.642Z,64.97
2023-05-06T09:47:49.729Z,65.45
2023-05-06T09:50:19.411Z,65.42
2023-05-06T09:52:49.154Z,65.31
2023-05-06T09:55:21.379Z,65.38
2023-05-06T09:57:52.142Z,65.72
2023-05-06T10:00:28.302Z,66.01
2023-05-06T10:02:58.603Z,65.99
2023-05-06T10:05:30.046Z,65.73
2023-05-06T10:08:00.044Z,65.67
2023-05-06T10:10:32.858Z,64.87
2023-05-06T10:13:04.905Z,64.86
2023-05-06T10:15:37.732Z,65.30
2023-05-06T10:18:09.886Z,65.49
2023-05-06T10:20:43.762Z,65.46
2023-05-06T10:23:22.023Z,64.87
2023-05-06T10:25:56.103Z,65.05
2023-05-06T10:28:30.468Z,64.79
2023-05-06T10:31:06.350Z,64.98
2023-05-06T10:33:36.598Z,64.98
2023-05-06T10:36:16.791Z,64.66
2023-05-06T10:38:49.406Z,64.61
2023-05-06T10:41:21.374Z,64.86
2023-05-06T10:43:56.947Z,63.83
2023-05-06T10:46:30.898Z,64.00
2023-05-06T10:49:20.737Z,64.02
2023-05-06T10:52:11.805Z,64.01
2023-05-06T10:54:51.228Z,64.06
2023-05-06T10:57:22.718Z,63.59
2023-05-06T10:59:54.605Z,64.01
2023-05-06T11:02:26.955Z,63.96
2023-05-06T11:05:03.620Z,63.78
2023-05-06T11:07:33.141Z,63.22
2023-05-06T11:10:05.378Z,62.69
2023-05-06T11:12:49.391Z,63.12
2023-05-06T11:15:24.121Z,63.15
2023-05-06T11:17:57.498Z,62.12
2023-05-06T11:20:28.110Z,62.70
2023-05-06T11:22:57.590Z,62.58
2023-05-06T11:25:43.855Z,62.50
2023-05-06T11:28:14.303Z,62.59
2023-05-06T11:30:46.180Z,62.96
2023-05-06T11:33:21.637Z,62.75
2023-05-06T11:35:51.152Z,62.78
2023-05-06T11:38:20.596Z,62.37
2023-05-06T11:40:51.975Z,61.87
2023-05-06T11:43:21.412Z,61.98
2023-05-06T11:45:51.636Z,61.95
2023-05-06T11:48:23.704Z,60.93
2023-05-06T11:50:53.602Z,62.00
2023-05-06T11:53:25.190Z,61.37
2023-05-06T11:55:56.389Z,60.58
2023-05-06T11:58:28.208Z,61.25
2023-05-06T12:00:59.047Z,61.21
2023-05-06T12:03:32.696Z,61.21
2023-05-06T12:06:02.903Z,61.15
2023-05-06T12:08:34.730Z,61.32
2023-05-06T12:11:05.873Z,61.57
2023-05-06T12:13:37.095Z,61.04
2023-05-06T12:16:08.641Z,61.00
2023-05-06T12:18:40.864Z,61.07
2023-05-06T12:21:10.344Z,61.08
2023-05-06T12:23:39.894Z,61.59
2023-05-06T12:26:10.092Z,61.31
2023-05-06T12:28:42.720Z,61.54
2023-05-06T12:31:21.750Z,61.56
2023-05-06T12:33:56.102Z,61.94
2023-05-06T12:36:26.631Z,61.70
2023-05-06T12:38:57.340Z,61.25
2023-05-06T12:41:28.145Z,61.72
2023-05-06T12:43:57.603Z,61.52
2023-05-06T12:46:27.172Z,61.08
2023-05-06T12:49:06.155Z,61.48
2023-05-06T12:51:35.573Z,61.10
2023-05-06T12:54:05.008Z,61.18
2023-05-06T12:56:34.444Z,61.00
2023-05-06T12:59:04.999Z,60.42
2023-05-06T13:01:35.013Z,60.41
2023-05-06T13:04:07.949Z,60.62
2023-05-06T13:06:37.218Z,60.58
2023-05-06T13:09:07.471Z,60.37
2023-05-06T13:11:36.902Z,60.01
2023-05-06T13:14:06.290Z,60.47
2023-05-06T13:16:36.252Z,60.40
2023-05-06T13:19:12.827Z,59.59
2023-05-06T13:21:51.078Z,59.77
2023-05-06T13:24:21.498Z,59.65
2023-05-06T13:26:50.980Z,59.44
2023-05-06T13:29:20.420Z,59.14
2023-05-06T13:31:49.879Z,59.22
2023-05-06T13:34:21.949Z,58.03
2023-05-06T13:36:52.112Z,58.37
2023-05-06T13:39:21.649Z,58.39
2023-05-06T13:41:52.171Z,57.99
2023-05-06T13:44:22.442Z,56.94
2023-05-06T13:46:52.621Z,56.93
2023-05-06T13:49:24.837Z,56.47
2023-05-06T13:51:54.350Z,56.40
2023-05-06T13:54:23.783Z,56.20
2023-05-06T13:56:53.244Z,56.97
2023-05-06T13:59:22.685Z,56.95
2023-05-06T14:01:54.197Z,56.35
2023-05-06T14:04:26.313Z,56.53
2023-05-06T14:06:56.143Z,56.90
2023-05-06T14:09:25.628Z,55.81
2023-05-06T14:11:55.127Z,55.99
2023-05-06T14:14:24.573Z,55.90
2023-05-06T14:16:55.792Z,55.14
2023-05-06T14:19:27.916Z,55.13
2023-05-06T14:21:57.394Z,55.19
2023-05-06T14:24:26.850Z,54.91
2023-05-06T14:26:56.692Z,54.37
2023-05-06T14:29:26.273Z,54.13
2023-05-06T14:31:56.045Z,54.34
2023-05-06T14:34:28.252Z,54.40
2023-05-06T14:36:57.735Z,54.43
2023-05-06T14:39:27.199Z,54.28
2023-05-06T14:41:56.739Z,54.31
2023-05-06T14:44:26.215Z,54.07
2023-05-06T14:46:55.942Z,54.29
2023-05-06T14:49:28.073Z,54.30
2023-05-06T14:51:57.691Z,54.34
2023-05-06T14:54:29.403Z,54.26
2023-05-06T14:57:01.403Z,54.45
2023-05-06T14:59:31.143Z,54.03
2023-05-06T15:02:00.609Z,53.90
2023-05-06T15:04:32.994Z,53.45
2023-05-06T15:07:02.906Z,53.68
2023-05-06T15:09:32.421Z,53.92
2023-05-06T15:12:02.009Z,52.96
2023-05-06T15:14:31.496Z,53.08
2023-05-06T15:17:01.098Z,53.49
2023-05-06T15:19:33.980Z,53.53
2023-05-06T15:22:03.623Z,53.67
2023-05-06T15:24:33.420Z,53.62
2023-05-06T15:27:02.909Z,53.40
2023-05-06T15:29:32.646Z,53.90
2023-05-06T15:32:02.241Z,53.47
2023-05-06T15:34:34.347Z,53.52
2023-05-06T15:37:04.348Z,53.68
2023-05-06T15:39:38.456Z,53.41
2023-05-06T15:42:08.242Z,53.49
2023-05-06T15:44:37.859Z,53.25
2023-05-06T15:47:07.617Z,53.46
2023-05-06T15:52:12.462Z,54.36
2023-05-06T15:54:41.899Z,54.27
2023-05-06T15:57:11.785Z,54.17
2023-05-06T15:59:41.384Z,54.39
2023-05-06T16:04:46.118Z,53.90
2023-05-06T16:07:16.817Z,53.66
2023-05-06T16:09:46.343Z,54.32
2023-05-06T16:12:15.814Z,54.42
2023-05-06T16:14:45.331Z,54.41
2023-05-06T16:17:15.819Z,55.03
2023-05-06T16:19:47.888Z,54.81
2023-05-06T16:22:17.392Z,55.08
2023-05-06T16:24:46.863Z,54.80
2023-05-06T16:27:16.582Z,54.12
2023-05-06T16:29:46.043Z,54.15
2023-05-06T16:32:15.584Z,53.90
2023-05-06T16:34:47.630Z,54.47
2023-05-06T16:37:18.097Z,53.92
2023-05-06T16:39:47.636Z,53.89
2023-05-06T16:42:17.154Z,54.06
2023-05-06T16:44:46.630Z,53.89
2023-05-06T16:47:16.199Z,54.34
2023-05-06T16:49:48.344Z,53.97
2023-05-06T16:52:17.894Z,54.35
2023-05-06T16:54:47.818Z,53.77
2023-05-06T16:57:17.301Z,54.69
2023-05-06T16:59:46.805Z,53.75
2023-05-06T17:02:16.445Z,54.34
2023-05-06T17:04:48.482Z,54.33
2023-05-06T17:07:17.998Z,54.74
2023-05-06T17:09:47.574Z,56.06
2023-05-06T17:12:17.127Z,56.88
2023-05-06T17:14:46.666Z,57.15
2023-05-06T17:17:16.234Z,57.55
2023-05-06T17:19:48.277Z,57.28
2023-05-06T17:22:17.712Z,57.58
2023-05-06T17:24:47.199Z,58.03
2023-05-06T17:27:16.618Z,57.99
2023-05-06T17:29:46.252Z,58.27
2023-05-06T17:32:15.959Z,58.39
2023-05-06T17:34:48.383Z,58.89
2023-05-06T17:37:17.856Z,58.91
2023-05-06T17:39:47.373Z,59.19
2023-05-06T17:42:17.014Z,59.14
2023-05-06T17:44:46.482Z,59.36
2023-05-06T17:47:17.556Z,59.37
2023-05-06T17:49:49.582Z,59.79
2023-05-06T17:52:19.691Z,59.92
2023-05-06T17:55:05.785Z,59.96
2023-05-06T17:57:40.335Z,60.06
2023-05-06T18:00:11.644Z,59.81
2023-05-06T18:02:45.132Z,60.39
2023-05-06T18:05:17.323Z,60.22
2023-05-06T18:07:46.845Z,60.37
2023-05-06T18:10:16.438Z,60.36
2023-05-06T18:12:47.095Z,60.34
2023-05-06T18:15:17.024Z,60.25
2023-05-06T18:17:46.540Z,60.56
2023-05-06T18:20:18.863Z,60.40
2023-05-06T18:22:48.354Z,60.89
2023-05-06T18:25:17.845Z,60.76
2023-05-06T18:27:48.201Z,61.01
2023-05-06T18:30:18.404Z,60.87
2023-05-06T18:32:50.716Z,60.85
2023-05-06T18:35:23.561Z,61.03
2023-05-06T18:37:53.012Z,61.14
2023-05-06T18:40:22.732Z,61.29
2023-05-06T18:42:53.260Z,61.44
2023-05-06T18:45:23.082Z,61.26
2023-05-06T18:47:52.592Z,61.42
2023-05-06T18:50:24.899Z,61.85
2023-05-06T18:52:54.346Z,61.68
2023-05-06T18:55:24.233Z,61.61
2023-05-06T18:57:53.719Z,61.51
2023-05-06T19:00:24.538Z,61.31
2023-05-06T19:02:54.871Z,61.26
2023-05-06T19:05:27.153Z,61.21
2023-05-06T19:07:56.607Z,61.48
2023-05-06T19:10:26.452Z,61.73
2023-05-06T19:12:55.932Z,61.90
2023-05-06T19:15:25.417Z,62.43
2023-05-06T19:17:55.164Z,62.75
2023-05-06T19:20:27.236Z,62.61
2023-05-06T19:22:56.807Z,62.45
2023-05-06T19:25:27.174Z,62.35
2023-05-06T19:27:56.652Z,62.29
2023-05-06T19:30:26.160Z,62.25
2023-05-06T19:32:57.469Z,62.50
2023-05-06T19:35:29.785Z,62.40
2023-05-06T19:37:59.493Z,62.71
2023-05-06T19:40:29.140Z,63.24
2023-05-06T19:43:03.814Z,63.16
2023-05-06T19:45:33.734Z,63.28
2023-05-06T19:48:04.268Z,63.04
2023-05-06T19:50:36.766Z,62.79
2023-05-06T19:53:06.365Z,62.82
2023-05-06T19:55:35.977Z,62.97
2023-05-06T19:58:05.502Z,63.58
2023-05-06T20:00:35.202Z,63.65
2023-05-06T20:03:04.752Z,63.79
2023-05-06T20:05:36.814Z,63.67
2023-05-06T20:08:10.943Z,63.60
2023-05-06T20:10:41.085Z,63.93
2023-05-06T20:13:12.040Z,64.50
2023-05-06T20:15:41.662Z,64.31
2023-05-06T20:18:11.209Z,64.73
2023-05-06T20:20:44.215Z,64.79
2023-05-06T20:23:13.704Z,64.82
2023-05-06T20:25:43.208Z,64.77
2023-05-06T20:28:12.777Z,64.74
2023-05-06T20:30:42.330Z,64.42
2023-05-06T20:33:11.844Z,64.39
2023-05-06T20:35:43.996Z,64.32
2023-05-06T20:38:17.013Z,64.74
2023-05-06T20:40:46.526Z,64.76
2023-05-06T20:43:16.227Z,64.66
2023-05-06T20:45:45.789Z,64.93
2023-05-06T20:48:15.428Z,65.06
2023-05-06T20:50:47.611Z,65.11
2023-05-06T20:53:17.492Z,64.99
2023-05-06T20:55:46.991Z,64.57
2023-05-06T20:58:16.458Z,65.04
2023-05-06T21:00:45.960Z,65.20
2023-05-06T21:03:15.621Z,65.20
2023-05-06T21:05:47.817Z,64.82
2023-05-06T21:08:18.227Z,65.17
2023-05-06T21:10:47.779Z,65.47
2023-05-06T21:13:17.387Z,65.29
2023-05-06T21:15:46.907Z,65.13
2023-05-06T21:18:16.863Z,65.52
2023-05-06T21:20:49.126Z,65.36
2023-05-06T21:23:19.132Z,65.58
2023-05-06T21:25:48.826Z,65.42
2023-05-06T21:28:18.396Z,65.66
2023-05-06T21:30:47.893Z,65.51
2023-05-06T21:33:17.483Z,65.41
2023-05-06T21:35:49.556Z,65.41
2023-05-06T21:38:19.028Z,65.65
2023-05-06T21:40:49.139Z,65.56
2023-05-06T21:43:18.608Z,65.54
2023-05-06T21:45:48.188Z,65.65
2023-05-06T21:48:17.664Z,65.51
2023-05-06T21:50:49.692Z,65.47
2023-05-06T21:53:19.197Z,65.93
2023-05-06T21:55:48.642Z,65.69
2023-05-06T21:58:18.654Z,65.95
2023-05-06T22:00:48.459Z,65.75
2023-05-06T22:03:18.014Z,65.72
2023-05-06T22:05:50.151Z,65.85
2023-05-06T22:08:19.683Z,65.72
2023-05-06T22:10:49.255Z,65.43
2023-05-06T22:13:18.916Z,65.95
2023-05-06T22:15:48.478Z,65.86
2023-05-06T22:18:18.090Z,65.98
2023-05-06T22:20:52.545Z,66.07
2023-05-06T22:23:23.943Z,65.60
2023-05-06T22:25:54.413Z,65.91
2023-05-06T22:28:23.928Z,65.67
2023-05-06T22:30:53.374Z,65.97
2023-05-06T22:33:22.892Z,65.77
2023-05-06T22:35:55.588Z,66.18
2023-05-06T22:38:24.926Z,65.99
2023-05-06T22:40:54.645Z,65.88
2023-05-06T22:43:24.149Z,66.07
2023-05-06T22:45:53.712Z,66.02
2023-05-06T22:48:23.938Z,66.21
2023-05-06T22:50:56.505Z,65.98
2023-05-06T22:53:26.205Z,66.22
2023-05-06T22:55:55.713Z,65.98
2023-05-06T22:58:25.214Z,66.25
2023-05-06T23:00:54.725Z,66.28
2023-05-06T23:03:25.144Z,66.20
2023-05-06T23:05:57.178Z,66.41
2023-05-06T23:08:26.675Z,66.55
2023-05-06T23:10:56.224Z,66.50
2023-05-06T23:13:26.803Z,66.56
2023-05-06T23:15:56.486Z,66.67
2023-05-06T23:18:25.917Z,66.63
2023-05-06T23:20:57.934Z,66.94
2023-05-06T23:23:27.400Z,66.96
2023-05-06T23:25:56.851Z,66.50
2023-05-06T23:28:26.541Z,66.90
2023-05-06T23:30:56.113Z,66.90
2023-05-06T23:33:25.641Z,67.13
2023-05-06T23:35:55.091Z,67.33
2023-05-06T23:38:27.234Z,67.41
2023-05-06T23:40:57.121Z,67.43
2023-05-06T23:43:26.647Z,67.50
2023-05-06T23:45:56.130Z,67.62
2023-05-06T23:48:25.736Z,67.16
2023-05-06T23:50:55.186Z,67.42
2023-05-06T23:53:27.252Z,67.24
2023-05-06T23:55:56.866Z,67.50
2023-05-06T23:58:26.375Z,67.52
